sensor_id;sensor_type;location;lat;lon;timestamp;P1;durP1;ratioP1;P2;durP2;ratioP2
73107;SDS011;61559;50.476;15.588;2022-08-03T00:02:20;6.20;;;2.60;;
73107;SDS011;61559;50.476;15.588;2022-08-03T00:04:51;2.90;;;2.60;;
73107;SDS011;61559;50.476;15.588;2022-08-03T00:07:22;4.30;;;2.90;;
73107;SDS011;61559;50.476;15.588;2022-08-03T00:09:53;3.90;;;2.80;;
73107;SDS011;61559;50.476;15.588;2022-08-03T00:12:23;3.60;;;2.80;;
73107;SDS011;61559;50.476;15.588;2022-08-03T00:14:54;4.00;;;2.90;;
73107;SDS011;61559;50.476;15.588;2022-08-03T00:17:25;3.80;;;2.50;;
73107;SDS011;61559;50.476;15.588;2022-08-03T00:20:16;2.90;;;2.40;;
73107;SDS011;61559;50.476;15.588;2022-08-03T00:22:56;3.00;;;2.30;;
73107;SDS011;61559;50.476;15.588;2022-08-03T00:25:27;4.20;;;2.90;;
73107;SDS011;61559;50.476;15.588;2022-08-03T00:27:58;3.40;;;3.00;;
73107;SDS011;61559;50.476;15.588;2022-08-03T00:30:29;3.90;;;2.90;;
73107;SDS011;61559;50.476;15.588;2022-08-03T00:33:01;3.30;;;2.60;;
73107;SDS011;61559;50.476;15.588;2022-08-03T00:35:35;3.40;;;2.70;;
73107;SDS011;61559;50.476;15.588;2022-08-03T00:38:18;2.80;;;2.60;;
73107;SDS011;61559;50.476;15.588;2022-08-03T00:40:49;3.30;;;2.50;;
73107;SDS011;61559;50.476;15.588;2022-08-03T00:43:23;3.10;;;2.70;;
73107;SDS011;61559;50.476;15.588;2022-08-03T00:45:54;5.70;;;2.90;;
73107;SDS011;61559;50.476;15.588;2022-08-03T00:48:25;3.20;;;2.80;;
73107;SDS011;61559;50.476;15.588;2022-08-03T00:51:00;4.10;;;3.20;;
73107;SDS011;61559;50.476;15.588;2022-08-03T00:53:32;3.40;;;2.50;;
73107;SDS011;61559;50.476;15.588;2022-08-03T00:56:05;3.20;;;2.40;;
73107;SDS011;61559;50.476;15.588;2022-08-03T00:58:36;3.30;;;2.60;;
73107;SDS011;61559;50.476;15.588;2022-08-03T01:01:07;3.60;;;2.80;;
73107;SDS011;61559;50.476;15.588;2022-08-03T01:03:39;4.50;;;2.80;;
73107;SDS011;61559;50.476;15.588;2022-08-03T01:06:14;3.30;;;2.40;;
73107;SDS011;61559;50.476;15.588;2022-08-03T01:08:50;3.70;;;2.60;;
73107;SDS011;61559;50.476;15.588;2022-08-03T01:11:28;2.90;;;2.60;;
73107;SDS011;61559;50.476;15.588;2022-08-03T01:14:29;3.10;;;2.70;;
73107;SDS011;61559;50.476;15.588;2022-08-03T01:17:07;3.30;;;2.60;;
73107;SDS011;61559;50.476;15.588;2022-08-03T01:19:49;2.50;;;2.30;;
73107;SDS011;61559;50.476;15.588;2022-08-03T01:22:34;3.10;;;2.60;;
73107;SDS011;61559;50.476;15.588;2022-08-03T01:25:23;3.10;;;2.60;;
73107;SDS011;61559;50.476;15.588;2022-08-03T01:28:09;3.20;;;2.90;;
73107;SDS011;61559;50.476;15.588;2022-08-03T01:30:55;3.90;;;2.70;;
73107;SDS011;61559;50.476;15.588;2022-08-03T01:33:30;3.50;;;2.70;;
73107;SDS011;61559;50.476;15.588;2022-08-03T01:36:08;4.60;;;3.10;;
73107;SDS011;61559;50.476;15.588;2022-08-03T01:38:42;3.70;;;2.40;;
73107;SDS011;61559;50.476;15.588;2022-08-03T01:41:16;3.90;;;2.60;;
73107;SDS011;61559;50.476;15.588;2022-08-03T01:43:49;2.90;;;2.60;;
73107;SDS011;61559;50.476;15.588;2022-08-03T01:46:42;2.80;;;2.50;;
73107;SDS011;61559;50.476;15.588;2022-08-03T01:49:16;3.60;;;2.60;;
73107;SDS011;61559;50.476;15.588;2022-08-03T01:51:48;4.20;;;2.60;;
73107;SDS011;61559;50.476;15.588;2022-08-03T01:54:32;2.50;;;2.30;;
73107;SDS011;61559;50.476;15.588;2022-08-03T01:57:05;2.80;;;2.50;;
73107;SDS011;61559;50.476;15.588;2022-08-03T01:59:38;4.00;;;2.60;;
73107;SDS011;61559;50.476;15.588;2022-08-03T02:02:11;3.30;;;2.70;;
73107;SDS011;61559;50.476;15.588;2022-08-03T02:05:02;5.10;;;3.10;;
73107;SDS011;61559;50.476;15.588;2022-08-03T02:07:38;2.90;;;2.70;;
73107;SDS011;61559;50.476;15.588;2022-08-03T02:10:11;3.90;;;2.40;;
73107;SDS011;61559;50.476;15.588;2022-08-03T02:13:03;3.50;;;2.50;;
73107;SDS011;61559;50.476;15.588;2022-08-03T02:15:36;2.70;;;2.20;;
73107;SDS011;61559;50.476;15.588;2022-08-03T02:18:08;3.50;;;3.10;;
73107;SDS011;61559;50.476;15.588;2022-08-03T02:20:41;3.30;;;3.00;;
73107;SDS011;61559;50.476;15.588;2022-08-03T02:23:13;3.00;;;2.70;;
73107;SDS011;61559;50.476;15.588;2022-08-03T02:25:45;2.60;;;2.40;;
73107;SDS011;61559;50.476;15.588;2022-08-03T02:28:21;4.40;;;2.60;;
73107;SDS011;61559;50.476;15.588;2022-08-03T02:31:00;3.10;;;2.60;;
73107;SDS011;61559;50.476;15.588;2022-08-03T02:33:38;2.60;;;2.40;;
73107;SDS011;61559;50.476;15.588;2022-08-03T02:36:18;5.20;;;2.60;;
73107;SDS011;61559;50.476;15.588;2022-08-03T02:38:57;3.50;;;2.80;;
73107;SDS011;61559;50.476;15.588;2022-08-03T02:41:31;3.10;;;2.60;;
73107;SDS011;61559;50.476;15.588;2022-08-03T02:44:07;3.60;;;2.50;;
73107;SDS011;61559;50.476;15.588;2022-08-03T02:46:42;3.10;;;2.40;;
73107;SDS011;61559;50.476;15.588;2022-08-03T02:49:15;2.90;;;2.50;;
73107;SDS011;61559;50.476;15.588;2022-08-03T02:52:09;3.40;;;2.50;;
73107;SDS011;61559;50.476;15.588;2022-08-03T02:57:14;2.50;;;2.20;;
73107;SDS011;61559;50.476;15.588;2022-08-03T02:59:47;3.50;;;2.50;;
73107;SDS011;61559;50.476;15.588;2022-08-03T03:02:19;3.50;;;2.60;;
73107;SDS011;61559;50.476;15.588;2022-08-03T03:04:52;2.90;;;2.50;;
73107;SDS011;61559;50.476;15.588;2022-08-03T03:07:43;3.80;;;2.80;;
73107;SDS011;61559;50.476;15.588;2022-08-03T03:10:21;3.60;;;2.60;;
73107;SDS011;61559;50.476;15.588;2022-08-03T03:12:55;3.00;;;2.50;;
73107;SDS011;61559;50.476;15.588;2022-08-03T03:15:28;3.50;;;2.50;;
73107;SDS011;61559;50.476;15.588;2022-08-03T03:18:02;3.00;;;2.60;;
73107;SDS011;61559;50.476;15.588;2022-08-03T03:20:37;3.60;;;2.80;;
73107;SDS011;61559;50.476;15.588;2022-08-03T03:23:09;4.00;;;3.30;;
73107;SDS011;61559;50.476;15.588;2022-08-03T03:25:41;2.90;;;2.50;;
73107;SDS011;61559;50.476;15.588;2022-08-03T03:28:13;3.50;;;2.60;;
73107;SDS011;61559;50.476;15.588;2022-08-03T03:30:44;3.20;;;2.20;;
73107;SDS011;61559;50.476;15.588;2022-08-03T03:33:20;3.00;;;2.60;;
73107;SDS011;61559;50.476;15.588;2022-08-03T03:35:51;3.50;;;2.10;;
73107;SDS011;61559;50.476;15.588;2022-08-03T03:38:23;2.70;;;2.40;;
73107;SDS011;61559;50.476;15.588;2022-08-03T03:40:54;3.50;;;2.30;;
73107;SDS011;61559;50.476;15.588;2022-08-03T03:43:26;3.50;;;2.70;;
73107;SDS011;61559;50.476;15.588;2022-08-03T03:45:57;3.50;;;2.30;;
73107;SDS011;61559;50.476;15.588;2022-08-03T03:48:29;3.10;;;2.30;;
73107;SDS011;61559;50.476;15.588;2022-08-03T03:51:00;3.20;;;2.40;;
73107;SDS011;61559;50.476;15.588;2022-08-03T03:53:32;2.60;;;2.40;;
73107;SDS011;61559;50.476;15.588;2022-08-03T03:56:03;3.80;;;2.70;;
73107;SDS011;61559;50.476;15.588;2022-08-03T03:58:34;3.20;;;2.70;;
73107;SDS011;61559;50.476;15.588;2022-08-03T04:01:04;3.10;;;2.80;;
73107;SDS011;61559;50.476;15.588;2022-08-03T04:03:36;4.60;;;2.70;;
73107;SDS011;61559;50.476;15.588;2022-08-03T04:06:08;2.20;;;2.00;;
73107;SDS011;61559;50.476;15.588;2022-08-03T04:08:57;3.00;;;2.30;;
73107;SDS011;61559;50.476;15.588;2022-08-03T04:11:49;3.10;;;2.40;;
73107;SDS011;61559;50.476;15.588;2022-08-03T04:14:23;3.40;;;2.80;;
73107;SDS011;61559;50.476;15.588;2022-08-03T04:16:58;5.30;;;2.80;;
73107;SDS011;61559;50.476;15.588;2022-08-03T04:19:33;4.70;;;2.40;;
73107;SDS011;61559;50.476;15.588;2022-08-03T04:22:09;3.60;;;3.00;;
73107;SDS011;61559;50.476;15.588;2022-08-03T04:24:47;4.70;;;2.40;;
73107;SDS011;61559;50.476;15.588;2022-08-03T04:27:21;3.30;;;2.60;;
73107;SDS011;61559;50.476;15.588;2022-08-03T04:29:54;3.10;;;2.60;;
73107;SDS011;61559;50.476;15.588;2022-08-03T04:32:27;3.10;;;2.40;;
73107;SDS011;61559;50.476;15.588;2022-08-03T04:34:59;3.40;;;2.60;;
73107;SDS011;61559;50.476;15.588;2022-08-03T04:37:32;2.90;;;2.60;;
73107;SDS011;61559;50.476;15.588;2022-08-03T04:40:08;5.40;;;2.80;;
73107;SDS011;61559;50.476;15.588;2022-08-03T04:42:42;3.80;;;2.80;;
73107;SDS011;61559;50.476;15.588;2022-08-03T04:45:15;3.30;;;3.00;;
73107;SDS011;61559;50.476;15.588;2022-08-03T04:47:47;4.20;;;2.90;;
73107;SDS011;61559;50.476;15.588;2022-08-03T04:50:20;5.60;;;2.70;;
73107;SDS011;61559;50.476;15.588;2022-08-03T04:52:52;2.60;;;2.40;;
73107;SDS011;61559;50.476;15.588;2022-08-03T04:55:26;3.30;;;2.40;;
73107;SDS011;61559;50.476;15.588;2022-08-03T04:57:58;5.10;;;2.60;;
73107;SDS011;61559;50.476;15.588;2022-08-03T05:00:30;3.90;;;2.80;;
73107;SDS011;61559;50.476;15.588;2022-08-03T05:03:01;5.40;;;2.80;;
73107;SDS011;61559;50.476;15.588;2022-08-03T05:05:51;6.60;;;3.10;;
73107;SDS011;61559;50.476;15.588;2022-08-03T05:08:38;4.90;;;2.80;;
73107;SDS011;61559;50.476;15.588;2022-08-03T05:11:15;3.00;;;2.60;;
73107;SDS011;61559;50.476;15.588;2022-08-03T05:13:47;4.60;;;3.20;;
73107;SDS011;61559;50.476;15.588;2022-08-03T05:16:18;2.90;;;2.60;;
73107;SDS011;61559;50.476;15.588;2022-08-03T05:18:49;4.10;;;2.80;;
73107;SDS011;61559;50.476;15.588;2022-08-03T05:21:20;4.30;;;3.00;;
73107;SDS011;61559;50.476;15.588;2022-08-03T05:23:50;3.80;;;2.70;;
73107;SDS011;61559;50.476;15.588;2022-08-03T05:26:21;3.80;;;2.40;;
73107;SDS011;61559;50.476;15.588;2022-08-03T05:28:53;3.80;;;2.70;;
73107;SDS011;61559;50.476;15.588;2022-08-03T05:31:24;4.70;;;3.00;;
73107;SDS011;61559;50.476;15.588;2022-08-03T05:33:55;3.00;;;2.60;;
73107;SDS011;61559;50.476;15.588;2022-08-03T05:36:26;3.60;;;2.60;;
73107;SDS011;61559;50.476;15.588;2022-08-03T05:38:58;3.40;;;2.70;;
73107;SDS011;61559;50.476;15.588;2022-08-03T05:41:29;4.70;;;2.90;;
73107;SDS011;61559;50.476;15.588;2022-08-03T05:44:04;3.10;;;2.50;;
73107;SDS011;61559;50.476;15.588;2022-08-03T05:46:34;3.20;;;2.40;;
73107;SDS011;61559;50.476;15.588;2022-08-03T05:49:06;4.80;;;2.70;;
73107;SDS011;61559;50.476;15.588;2022-08-03T05:51:37;3.40;;;2.40;;
73107;SDS011;61559;50.476;15.588;2022-08-03T05:54:08;3.10;;;2.30;;
73107;SDS011;61559;50.476;15.588;2022-08-03T05:56:39;3.10;;;2.80;;
73107;SDS011;61559;50.476;15.588;2022-08-03T05:59:10;4.60;;;3.00;;
73107;SDS011;61559;50.476;15.588;2022-08-03T06:02:01;4.90;;;2.80;;
73107;SDS011;61559;50.476;15.588;2022-08-03T06:04:32;4.00;;;2.50;;
73107;SDS011;61559;50.476;15.588;2022-08-03T06:07:03;3.30;;;2.60;;
73107;SDS011;61559;50.476;15.588;2022-08-03T06:09:34;3.40;;;2.90;;
73107;SDS011;61559;50.476;15.588;2022-08-03T06:12:26;4.00;;;2.50;;
73107;SDS011;61559;50.476;15.588;2022-08-03T06:14:57;3.00;;;2.60;;
73107;SDS011;61559;50.476;15.588;2022-08-03T06:17:28;3.00;;;2.70;;
73107;SDS011;61559;50.476;15.588;2022-08-03T06:20:05;3.30;;;2.70;;
73107;SDS011;61559;50.476;15.588;2022-08-03T06:22:37;3.60;;;2.80;;
73107;SDS011;61559;50.476;15.588;2022-08-03T06:25:18;4.10;;;2.70;;
73107;SDS011;61559;50.476;15.588;2022-08-03T06:27:49;2.50;;;2.30;;
73107;SDS011;61559;50.476;15.588;2022-08-03T06:30:20;2.50;;;2.20;;
73107;SDS011;61559;50.476;15.588;2022-08-03T06:32:51;4.00;;;2.50;;
73107;SDS011;61559;50.476;15.588;2022-08-03T06:35:22;2.80;;;2.30;;
73107;SDS011;61559;50.476;15.588;2022-08-03T06:37:55;2.80;;;2.60;;
73107;SDS011;61559;50.476;15.588;2022-08-03T06:40:27;4.30;;;2.80;;
73107;SDS011;61559;50.476;15.588;2022-08-03T06:42:59;3.20;;;2.40;;
73107;SDS011;61559;50.476;15.588;2022-08-03T06:45:31;2.50;;;1.70;;
73107;SDS011;61559;50.476;15.588;2022-08-03T06:48:03;2.10;;;1.90;;
73107;SDS011;61559;50.476;15.588;2022-08-03T06:50:36;2.30;;;2.10;;
73107;SDS011;61559;50.476;15.588;2022-08-03T06:53:09;2.00;;;1.70;;
73107;SDS011;61559;50.476;15.588;2022-08-03T06:55:48;2.60;;;1.90;;
73107;SDS011;61559;50.476;15.588;2022-08-03T06:58:39;3.00;;;1.90;;
73107;SDS011;61559;50.476;15.588;2022-08-03T07:01:10;3.10;;;2.00;;
73107;SDS011;61559;50.476;15.588;2022-08-03T07:03:46;2.10;;;1.60;;
73107;SDS011;61559;50.476;15.588;2022-08-03T07:06:19;2.70;;;1.80;;
73107;SDS011;61559;50.476;15.588;2022-08-03T07:08:50;1.90;;;1.50;;
73107;SDS011;61559;50.476;15.588;2022-08-03T07:11:26;3.50;;;2.00;;
73107;SDS011;61559;50.476;15.588;2022-08-03T07:13:57;2.00;;;1.80;;
73107;SDS011;61559;50.476;15.588;2022-08-03T07:16:28;2.50;;;1.50;;
73107;SDS011;61559;50.476;15.588;2022-08-03T07:18:59;2.00;;;1.60;;
73107;SDS011;61559;50.476;15.588;2022-08-03T07:21:30;2.60;;;1.90;;
73107;SDS011;61559;50.476;15.588;2022-08-03T07:24:01;2.70;;;1.80;;
73107;SDS011;61559;50.476;15.588;2022-08-03T07:26:32;2.10;;;1.60;;
73107;SDS011;61559;50.476;15.588;2022-08-03T07:29:03;2.00;;;1.70;;
73107;SDS011;61559;50.476;15.588;2022-08-03T07:31:42;1.80;;;1.60;;
73107;SDS011;61559;50.476;15.588;2022-08-03T07:34:13;2.50;;;1.70;;
73107;SDS011;61559;50.476;15.588;2022-08-03T07:36:44;3.50;;;1.90;;
73107;SDS011;61559;50.476;15.588;2022-08-03T07:39:15;1.70;;;1.60;;
73107;SDS011;61559;50.476;15.588;2022-08-03T07:41:46;2.00;;;1.80;;
73107;SDS011;61559;50.476;15.588;2022-08-03T07:44:18;3.10;;;1.40;;
73107;SDS011;61559;50.476;15.588;2022-08-03T07:46:49;3.00;;;1.70;;
73107;SDS011;61559;50.476;15.588;2022-08-03T07:49:23;1.80;;;1.70;;
73107;SDS011;61559;50.476;15.588;2022-08-03T07:51:55;3.80;;;1.70;;
73107;SDS011;61559;50.476;15.588;2022-08-03T07:54:44;2.00;;;1.70;;
73107;SDS011;61559;50.476;15.588;2022-08-03T07:57:15;2.40;;;1.40;;
73107;SDS011;61559;50.476;15.588;2022-08-03T07:59:46;2.80;;;1.90;;
73107;SDS011;61559;50.476;15.588;2022-08-03T08:02:29;3.20;;;1.70;;
73107;SDS011;61559;50.476;15.588;2022-08-03T08:05:00;3.60;;;1.70;;
73107;SDS011;61559;50.476;15.588;2022-08-03T08:07:33;4.10;;;1.70;;
73107;SDS011;61559;50.476;15.588;2022-08-03T08:10:05;2.50;;;1.60;;
73107;SDS011;61559;50.476;15.588;2022-08-03T08:12:38;1.40;;;1.30;;
73107;SDS011;61559;50.476;15.588;2022-08-03T08:15:09;2.00;;;1.60;;
73107;SDS011;61559;50.476;15.588;2022-08-03T08:17:44;1.90;;;1.60;;
73107;SDS011;61559;50.476;15.588;2022-08-03T08:20:16;4.10;;;1.70;;
73107;SDS011;61559;50.476;15.588;2022-08-03T08:22:56;2.80;;;1.70;;
73107;SDS011;61559;50.476;15.588;2022-08-03T08:25:29;3.30;;;1.80;;
73107;SDS011;61559;50.476;15.588;2022-08-03T08:28:00;1.60;;;1.50;;
73107;SDS011;61559;50.476;15.588;2022-08-03T08:30:52;2.20;;;1.90;;
73107;SDS011;61559;50.476;15.588;2022-08-03T08:33:23;1.80;;;1.70;;
73107;SDS011;61559;50.476;15.588;2022-08-03T08:36:14;5.00;;;1.50;;
73107;SDS011;61559;50.476;15.588;2022-08-03T08:38:45;1.80;;;1.60;;
73107;SDS011;61559;50.476;15.588;2022-08-03T08:41:16;1.70;;;1.60;;
73107;SDS011;61559;50.476;15.588;2022-08-03T08:44:13;1.90;;;1.50;;
73107;SDS011;61559;50.476;15.588;2022-08-03T08:46:44;2.30;;;1.70;;
73107;SDS011;61559;50.476;15.588;2022-08-03T08:49:16;1.60;;;1.50;;
73107;SDS011;61559;50.476;15.588;2022-08-03T08:51:51;1.70;;;1.60;;
73107;SDS011;61559;50.476;15.588;2022-08-03T08:54:28;2.00;;;1.40;;
73107;SDS011;61559;50.476;15.588;2022-08-03T08:57:02;4.50;;;2.20;;
73107;SDS011;61559;50.476;15.588;2022-08-03T08:59:54;6.00;;;2.10;;
73107;SDS011;61559;50.476;15.588;2022-08-03T09:02:28;2.40;;;1.60;;
73107;SDS011;61559;50.476;15.588;2022-08-03T09:04:59;1.80;;;1.60;;
73107;SDS011;61559;50.476;15.588;2022-08-03T09:07:34;2.10;;;1.50;;
73107;SDS011;61559;50.476;15.588;2022-08-03T09:10:07;2.50;;;1.50;;
73107;SDS011;61559;50.476;15.588;2022-08-03T09:12:42;1.80;;;1.50;;
73107;SDS011;61559;50.476;15.588;2022-08-03T09:15:18;1.90;;;1.50;;
73107;SDS011;61559;50.476;15.588;2022-08-03T09:17:52;1.90;;;1.50;;
73107;SDS011;61559;50.476;15.588;2022-08-03T09:20:24;2.00;;;1.80;;
73107;SDS011;61559;50.476;15.588;2022-08-03T09:22:57;2.40;;;1.50;;
73107;SDS011;61559;50.476;15.588;2022-08-03T09:25:50;2.50;;;1.40;;
73107;SDS011;61559;50.476;15.588;2022-08-03T09:28:34;3.20;;;1.70;;
73107;SDS011;61559;50.476;15.588;2022-08-03T09:31:32;2.80;;;1.70;;
73107;SDS011;61559;50.476;15.588;2022-08-03T09:34:05;3.10;;;1.80;;
73107;SDS011;61559;50.476;15.588;2022-08-03T09:36:41;3.00;;;1.40;;
73107;SDS011;61559;50.476;15.588;2022-08-03T09:39:14;5.10;;;2.40;;
73107;SDS011;61559;50.476;15.588;2022-08-03T09:42:08;1.70;;;1.60;;
73107;SDS011;61559;50.476;15.588;2022-08-03T09:44:42;1.80;;;1.50;;
73107;SDS011;61559;50.476;15.588;2022-08-03T09:47:15;1.50;;;1.30;;
73107;SDS011;61559;50.476;15.588;2022-08-03T09:49:58;1.50;;;1.40;;
73107;SDS011;61559;50.476;15.588;2022-08-03T09:52:31;1.50;;;1.40;;
73107;SDS011;61559;50.476;15.588;2022-08-03T09:55:19;2.50;;;1.50;;
73107;SDS011;61559;50.476;15.588;2022-08-03T09:58:12;1.60;;;1.50;;
73107;SDS011;61559;50.476;15.588;2022-08-03T10:00:52;1.50;;;1.30;;
73107;SDS011;61559;50.476;15.588;2022-08-03T10:03:26;1.50;;;1.20;;
73107;SDS011;61559;50.476;15.588;2022-08-03T10:05:58;2.70;;;1.40;;
73107;SDS011;61559;50.476;15.588;2022-08-03T10:08:46;2.60;;;1.60;;
73107;SDS011;61559;50.476;15.588;2022-08-03T10:11:33;2.90;;;1.40;;
73107;SDS011;61559;50.476;15.588;2022-08-03T10:14:09;2.00;;;1.40;;
73107;SDS011;61559;50.476;15.588;2022-08-03T10:16:46;2.30;;;1.40;;
73107;SDS011;61559;50.476;15.588;2022-08-03T10:19:18;2.00;;;1.20;;
73107;SDS011;61559;50.476;15.588;2022-08-03T10:21:52;3.10;;;1.40;;
73107;SDS011;61559;50.476;15.588;2022-08-03T10:24:25;2.60;;;1.40;;
73107;SDS011;61559;50.476;15.588;2022-08-03T10:27:00;2.40;;;1.70;;
73107;SDS011;61559;50.476;15.588;2022-08-03T10:29:33;2.20;;;1.90;;
73107;SDS011;61559;50.476;15.588;2022-08-03T10:32:09;2.10;;;1.90;;
73107;SDS011;61559;50.476;15.588;2022-08-03T10:34:46;1.50;;;1.30;;
73107;SDS011;61559;50.476;15.588;2022-08-03T10:37:27;1.40;;;1.30;;
73107;SDS011;61559;50.476;15.588;2022-08-03T10:40:01;1.60;;;1.50;;
73107;SDS011;61559;50.476;15.588;2022-08-03T10:42:33;1.70;;;1.60;;
73107;SDS011;61559;50.476;15.588;2022-08-03T10:45:06;2.90;;;1.60;;
73107;SDS011;61559;50.476;15.588;2022-08-03T10:47:41;3.30;;;1.80;;
73107;SDS011;61559;50.476;15.588;2022-08-03T10:50:12;2.20;;;2.00;;
73107;SDS011;61559;50.476;15.588;2022-08-03T10:52:54;2.90;;;1.40;;
73107;SDS011;61559;50.476;15.588;2022-08-03T10:55:31;3.40;;;1.50;;
73107;SDS011;61559;50.476;15.588;2022-08-03T11:04:27;1.50;;;1.40;;
73107;SDS011;61559;50.476;15.588;2022-08-03T11:09:53;2.80;;;1.90;;
73107;SDS011;61559;50.476;15.588;2022-08-03T11:12:25;2.30;;;1.80;;
73107;SDS011;61559;50.476;15.588;2022-08-03T11:15:00;1.90;;;1.40;;
73107;SDS011;61559;50.476;15.588;2022-08-03T11:17:33;2.80;;;1.50;;
73107;SDS011;61559;50.476;15.588;2022-08-03T11:20:13;1.90;;;1.60;;
73107;SDS011;61559;50.476;15.588;2022-08-03T11:22:48;2.40;;;1.60;;
73107;SDS011;61559;50.476;15.588;2022-08-03T11:25:21;3.20;;;1.50;;
73107;SDS011;61559;50.476;15.588;2022-08-03T11:28:27;1.40;;;1.30;;
73107;SDS011;61559;50.476;15.588;2022-08-03T11:32:55;2.30;;;1.60;;
73107;SDS011;61559;50.476;15.588;2022-08-03T11:35:28;3.60;;;1.40;;
73107;SDS011;61559;50.476;15.588;2022-08-03T11:38:04;2.20;;;1.60;;
73107;SDS011;61559;50.476;15.588;2022-08-03T11:40:45;1.60;;;1.40;;
73107;SDS011;61559;50.476;15.588;2022-08-03T11:46:14;2.10;;;1.50;;
73107;SDS011;61559;50.476;15.588;2022-08-03T11:49:01;3.00;;;1.30;;
73107;SDS011;61559;50.476;15.588;2022-08-03T11:51:38;1.40;;;1.30;;
73107;SDS011;61559;50.476;15.588;2022-08-03T11:54:09;4.10;;;1.40;;
73107;SDS011;61559;50.476;15.588;2022-08-03T11:56:46;3.70;;;1.30;;
73107;SDS011;61559;50.476;15.588;2022-08-03T11:59:18;3.10;;;1.50;;
73107;SDS011;61559;50.476;15.588;2022-08-03T12:02:09;3.60;;;1.50;;
73107;SDS011;61559;50.476;15.588;2022-08-03T12:04:49;3.00;;;1.60;;
73107;SDS011;61559;50.476;15.588;2022-08-03T12:07:21;2.00;;;1.70;;
73107;SDS011;61559;50.476;15.588;2022-08-03T12:10:14;2.30;;;1.50;;
73107;SDS011;61559;50.476;15.588;2022-08-03T12:12:46;2.70;;;1.80;;
73107;SDS011;61559;50.476;15.588;2022-08-03T12:15:26;1.30;;;1.20;;
73107;SDS011;61559;50.476;15.588;2022-08-03T12:17:59;3.00;;;1.60;;
73107;SDS011;61559;50.476;15.588;2022-08-03T12:20:34;3.90;;;1.60;;
73107;SDS011;61559;50.476;15.588;2022-08-03T12:23:05;4.80;;;1.60;;
73107;SDS011;61559;50.476;15.588;2022-08-03T12:25:38;1.70;;;1.40;;
73107;SDS011;61559;50.476;15.588;2022-08-03T12:28:12;2.10;;;1.50;;
73107;SDS011;61559;50.476;15.588;2022-08-03T12:31:04;2.80;;;1.70;;
73107;SDS011;61559;50.476;15.588;2022-08-03T12:39:02;2.00;;;1.40;;
73107;SDS011;61559;50.476;15.588;2022-08-03T12:41:35;2.90;;;1.70;;
73107;SDS011;61559;50.476;15.588;2022-08-03T12:44:08;3.20;;;1.60;;
73107;SDS011;61559;50.476;15.588;2022-08-03T12:46:40;3.00;;;1.70;;
73107;SDS011;61559;50.476;15.588;2022-08-03T12:49:15;1.90;;;1.50;;
73107;SDS011;61559;50.476;15.588;2022-08-03T12:51:56;2.90;;;1.40;;
73107;SDS011;61559;50.476;15.588;2022-08-03T12:54:34;1.50;;;1.40;;
73107;SDS011;61559;50.476;15.588;2022-08-03T12:57:05;2.20;;;1.80;;
73107;SDS011;61559;50.476;15.588;2022-08-03T12:59:43;1.80;;;1.70;;
73107;SDS011;61559;50.476;15.588;2022-08-03T13:02:21;1.70;;;1.50;;
73107;SDS011;61559;50.476;15.588;2022-08-03T13:04:54;2.00;;;1.70;;
73107;SDS011;61559;50.476;15.588;2022-08-03T13:07:27;2.90;;;1.80;;
73107;SDS011;61559;50.476;15.588;2022-08-03T13:10:25;8.20;;;2.00;;
73107;SDS011;61559;50.476;15.588;2022-08-03T13:12:58;3.00;;;1.40;;
73107;SDS011;61559;50.476;15.588;2022-08-03T13:15:31;2.80;;;1.40;;
73107;SDS011;61559;50.476;15.588;2022-08-03T13:18:14;1.40;;;1.30;;
73107;SDS011;61559;50.476;15.588;2022-08-03T13:20:45;7.20;;;1.80;;
73107;SDS011;61559;50.476;15.588;2022-08-03T13:23:17;1.60;;;1.40;;
73107;SDS011;61559;50.476;15.588;2022-08-03T13:25:49;2.60;;;1.50;;
73107;SDS011;61559;50.476;15.588;2022-08-03T13:28:23;1.70;;;1.50;;
73107;SDS011;61559;50.476;15.588;2022-08-03T13:30:54;2.10;;;1.50;;
73107;SDS011;61559;50.476;15.588;2022-08-03T13:33:25;2.60;;;1.60;;
73107;SDS011;61559;50.476;15.588;2022-08-03T13:35:56;1.90;;;1.40;;
73107;SDS011;61559;50.476;15.588;2022-08-03T13:38:27;2.60;;;1.40;;
73107;SDS011;61559;50.476;15.588;2022-08-03T13:41:00;1.90;;;1.60;;
73107;SDS011;61559;50.476;15.588;2022-08-03T13:43:32;1.60;;;1.50;;
73107;SDS011;61559;50.476;15.588;2022-08-03T13:46:07;1.60;;;1.50;;
73107;SDS011;61559;50.476;15.588;2022-08-03T13:48:42;1.60;;;1.40;;
73107;SDS011;61559;50.476;15.588;2022-08-03T13:51:14;3.50;;;1.60;;
73107;SDS011;61559;50.476;15.588;2022-08-03T13:53:51;2.00;;;1.40;;
73107;SDS011;61559;50.476;15.588;2022-08-03T13:56:26;2.40;;;1.30;;
73107;SDS011;61559;50.476;15.588;2022-08-03T13:58:58;2.40;;;1.40;;
73107;SDS011;61559;50.476;15.588;2022-08-03T14:01:29;2.50;;;1.20;;
73107;SDS011;61559;50.476;15.588;2022-08-03T14:04:20;2.50;;;1.30;;
73107;SDS011;61559;50.476;15.588;2022-08-03T14:06:51;1.90;;;1.30;;
73107;SDS011;61559;50.476;15.588;2022-08-03T14:09:22;1.90;;;1.40;;
73107;SDS011;61559;50.476;15.588;2022-08-03T14:11:53;1.70;;;1.40;;
73107;SDS011;61559;50.476;15.588;2022-08-03T14:14:35;1.90;;;1.50;;
73107;SDS011;61559;50.476;15.588;2022-08-03T14:17:06;1.90;;;1.70;;
73107;SDS011;61559;50.476;15.588;2022-08-03T14:19:38;1.60;;;1.40;;
73107;SDS011;61559;50.476;15.588;2022-08-03T14:24:51;2.20;;;1.80;;
73107;SDS011;61559;50.476;15.588;2022-08-03T14:27:22;1.90;;;1.80;;
73107;SDS011;61559;50.476;15.588;2022-08-03T14:29:54;1.90;;;1.60;;
73107;SDS011;61559;50.476;15.588;2022-08-03T14:32:29;4.70;;;1.70;;
73107;SDS011;61559;50.476;15.588;2022-08-03T14:35:00;4.60;;;1.60;;
73107;SDS011;61559;50.476;15.588;2022-08-03T14:37:33;1.40;;;1.30;;
73107;SDS011;61559;50.476;15.588;2022-08-03T14:40:06;3.30;;;1.60;;
73107;SDS011;61559;50.476;15.588;2022-08-03T14:42:37;2.00;;;1.40;;
73107;SDS011;61559;50.476;15.588;2022-08-03T14:45:12;1.70;;;1.40;;
73107;SDS011;61559;50.476;15.588;2022-08-03T14:47:47;1.50;;;1.40;;
73107;SDS011;61559;50.476;15.588;2022-08-03T14:50:41;2.20;;;1.30;;
73107;SDS011;61559;50.476;15.588;2022-08-03T14:53:25;2.00;;;1.50;;
73107;SDS011;61559;50.476;15.588;2022-08-03T14:55:57;3.40;;;1.40;;
73107;SDS011;61559;50.476;15.588;2022-08-03T15:01:26;1.50;;;1.30;;
73107;SDS011;61559;50.476;15.588;2022-08-03T15:04:17;1.70;;;1.50;;
73107;SDS011;61559;50.476;15.588;2022-08-03T15:06:48;3.00;;;1.30;;
73107;SDS011;61559;50.476;15.588;2022-08-03T15:09:19;1.60;;;1.20;;
73107;SDS011;61559;50.476;15.588;2022-08-03T15:11:51;0.90;;;0.90;;
73107;SDS011;61559;50.476;15.588;2022-08-03T15:14:22;1.70;;;1.40;;
73107;SDS011;61559;50.476;15.588;2022-08-03T15:17:00;1.40;;;1.30;;
73107;SDS011;61559;50.476;15.588;2022-08-03T15:19:33;1.60;;;1.30;;
73107;SDS011;61559;50.476;15.588;2022-08-03T15:22:24;1.50;;;1.20;;
73107;SDS011;61559;50.476;15.588;2022-08-03T15:25:15;1.30;;;1.20;;
73107;SDS011;61559;50.476;15.588;2022-08-03T15:28:06;1.10;;;1.00;;
73107;SDS011;61559;50.476;15.588;2022-08-03T15:30:37;1.40;;;1.30;;
73107;SDS011;61559;50.476;15.588;2022-08-03T15:33:08;1.20;;;1.10;;
73107;SDS011;61559;50.476;15.588;2022-08-03T15:35:39;2.70;;;1.30;;
73107;SDS011;61559;50.476;15.588;2022-08-03T15:38:10;1.30;;;1.20;;
73107;SDS011;61559;50.476;15.588;2022-08-03T15:40:42;1.20;;;1.10;;
73107;SDS011;61559;50.476;15.588;2022-08-03T15:43:13;1.60;;;1.20;;
73107;SDS011;61559;50.476;15.588;2022-08-03T15:45:48;1.40;;;1.30;;
73107;SDS011;61559;50.476;15.588;2022-08-03T15:48:40;1.30;;;1.10;;
73107;SDS011;61559;50.476;15.588;2022-08-03T15:51:11;1.30;;;1.20;;